createdAt,value
2023-05-04T00:01:05.484Z,99.90
2023-05-04T00:06:07.691Z,99.90
2023-05-04T00:11:09.344Z,99.90
2023-05-04T00:16:11.312Z,99.90
2023-05-04T00:21:13.128Z,99.90
2023-05-04T00:26:14.818Z,99.90
2023-05-04T00:31:19.059Z,99.90
2023-05-04T00:36:20.957Z,99.90
2023-05-04T00:41:23.084Z,99.90
2023-05-04T00:46:25.017Z,99.90
2023-05-04T00:51:27.071Z,99.90
2023-05-04T00:56:29.664Z,99.90
2023-05-04T01:01:31.365Z,99.90
2023-05-04T01:06:48.465Z,99.90
2023-05-04T01:12:08.349Z,99.90
2023-05-04T01:17:11.621Z,99.90
2023-05-04T01:22:13.484Z,99.90
2023-05-04T01:27:31.142Z,99.90
2023-05-04T01:32:34.017Z,99.90
2023-05-04T01:37:35.910Z,99.90
2023-05-04T01:42:37.565Z,99.90
2023-05-04T01:47:39.444Z,99.90
2023-05-04T01:52:41.281Z,99.90
2023-05-04T01:57:42.951Z,99.90
2023-05-04T02:02:44.727Z,99.90
2023-05-04T02:07:46.415Z,99.90
2023-05-04T02:12:48.139Z,99.90
2023-05-04T02:17:49.863Z,99.90
2023-05-04T02:22:51.662Z,99.90
2023-05-04T02:27:53.354Z,99.90
2023-05-04T02:32:55.093Z,99.90
2023-05-04T02:37:56.866Z,99.90
2023-05-04T02:42:58.599Z,99.90
2023-05-04T02:48:00.384Z,99.90
2023-05-04T02:53:02.096Z,99.90
2023-05-04T02:58:03.812Z,99.90
2023-05-04T03:03:05.517Z,99.90
2023-05-04T03:08:07.226Z,99.90
2023-05-04T03:13:08.948Z,99.90
2023-05-04T03:18:10.739Z,99.90
2023-05-04T03:23:12.501Z,99.90
2023-05-04T03:28:14.251Z,99.90
2023-05-04T03:33:16.017Z,99.90
2023-05-04T03:38:17.703Z,99.90
2023-05-04T03:43:19.517Z,99.90
2023-05-04T03:48:21.282Z,99.90
2023-05-04T03:53:23.128Z,99.90
2023-05-04T03:58:24.838Z,99.90
2023-05-04T04:03:26.762Z,99.90
2023-05-04T04:08:28.607Z,99.90
2023-05-04T04:13:30.454Z,99.90
2023-05-04T04:18:32.344Z,99.90
2023-05-04T04:23:34.001Z,99.90
2023-05-04T04:28:35.833Z,99.90
2023-05-04T04:33:37.544Z,99.90
2023-05-04T04:38:40.297Z,99.90
2023-05-04T04:43:41.986Z,99.90
2023-05-04T04:48:43.663Z,99.90
2023-05-04T04:53:45.425Z,99.90
2023-05-04T04:58:47.496Z,99.90
2023-05-04T05:03:50.107Z,99.90
2023-05-04T05:08:52.816Z,99.90
2023-05-04T05:13:54.532Z,99.90
2023-05-04T05:18:56.818Z,99.90
2023-05-04T05:23:58.503Z,99.90
2023-05-04T05:29:00.194Z,99.90
2023-05-04T05:34:02.466Z,99.90
2023-05-04T05:39:04.364Z,99.90
2023-05-04T05:44:06.318Z,99.90
2023-05-04T05:49:08.143Z,99.90
2023-05-04T05:54:09.968Z,99.90
2023-05-04T05:59:11.690Z,99.90
2023-05-04T06:04:13.519Z,99.90
2023-05-04T06:09:15.364Z,99.90
2023-05-04T06:14:17.171Z,99.90
2023-05-04T06:19:19.911Z,99.90
2023-05-04T06:24:22.713Z,99.90
2023-05-04T06:29:25.456Z,99.90
2023-05-04T06:34:27.226Z,99.90
2023-05-04T06:39:29.070Z,99.90
2023-05-04T06:44:30.817Z,99.90
2023-05-04T06:49:32.680Z,99.90
2023-05-04T06:54:34.488Z,99.90
2023-05-04T06:59:36.236Z,99.90
2023-05-04T07:04:38.532Z,99.90
2023-05-04T07:09:41.570Z,99.90
2023-05-04T07:14:44.378Z,99.90
2023-05-04T07:19:46.801Z,99.90
2023-05-04T07:24:48.557Z,99.90
2023-05-04T07:29:50.964Z,99.90
2023-05-04T07:34:54.316Z,99.90
2023-05-04T07:39:56.351Z,99.90
2023-05-04T07:44:58.393Z,99.90
2023-05-04T07:50:00.204Z,99.90
2023-05-04T07:55:02.027Z,99.90
2023-05-04T08:00:05.905Z,99.90
2023-05-04T08:05:08.523Z,99.90
2023-05-04T08:10:10.558Z,99.90
2023-05-04T08:15:12.401Z,99.90
2023-05-04T08:20:14.449Z,99.90
2023-05-04T08:25:16.284Z,99.90
2023-05-04T08:30:18.293Z,99.90
2023-05-04T08:35:19.943Z,99.90
2023-05-04T08:40:23.962Z,99.90
2023-05-04T08:45:25.981Z,99.90
2023-05-04T08:50:27.865Z,99.90
2023-05-04T08:55:35.944Z,99.90
2023-05-04T09:00:38.849Z,99.90
2023-05-04T09:05:46.068Z,99.90
2023-05-04T09:10:48.175Z,99.90
2023-05-04T09:15:57.036Z,99.90
2023-05-04T09:21:00.095Z,99.90
2023-05-04T09:26:02.527Z,99.90
2023-05-04T09:31:05.295Z,99.90
2023-05-04T09:36:21.170Z,99.90
2023-05-04T09:41:32.998Z,99.90
2023-05-04T09:46:36.550Z,99.90
2023-05-04T09:51:38.864Z,99.90
2023-05-04T09:56:48.253Z,99.90
2023-05-04T10:01:50.587Z,99.90
2023-05-04T10:06:54.837Z,99.90
2023-05-04T10:12:01.054Z,99.90
2023-05-04T10:17:24.208Z,99.90
2023-05-04T10:22:58.126Z,99.90
2023-05-04T10:28:31.966Z,99.90
2023-05-04T10:33:41.101Z,99.90
2023-05-04T10:38:42.867Z,99.90
2023-05-04T10:43:53.531Z,99.90
2023-05-04T10:48:55.264Z,99.90
2023-05-04T10:53:57.339Z,99.90
2023-05-04T10:59:09.034Z,99.90
2023-05-04T11:04:23.488Z,99.90
2023-05-04T11:09:28.551Z,99.90
2023-05-04T11:14:30.382Z,99.90
2023-05-04T11:19:33.672Z,99.90
2023-05-04T11:24:44.002Z,99.90
2023-05-04T11:30:13.195Z,99.90
2023-05-04T11:35:17.053Z,99.90
2023-05-04T11:40:24.678Z,98.70
2023-05-04T11:45:36.490Z,98.10
2023-05-04T11:50:38.446Z,96.90
2023-05-04T11:55:41.258Z,95.80
2023-05-04T12:00:47.024Z,94.20
2023-05-04T12:05:50.943Z,95.00
2023-05-04T12:11:21.587Z,94.30
2023-05-04T12:16:23.545Z,93.20
2023-05-04T12:21:25.328Z,93.10
2023-05-04T12:26:27.960Z,91.80
2023-05-04T12:31:30.338Z,91.50
2023-05-04T12:36:32.208Z,90.90
2023-05-04T12:41:34.138Z,90.20
2023-05-04T12:46:36.160Z,91.70
2023-05-04T12:51:38.044Z,92.30
2023-05-04T12:56:40.027Z,92.40
2023-05-04T13:01:56.042Z,92.20
2023-05-04T13:06:57.772Z,92.20
2023-05-04T13:12:03.641Z,91.90
2023-05-04T13:17:05.586Z,91.80
2023-05-04T13:22:07.587Z,90.70
2023-05-04T13:27:09.641Z,90.30
2023-05-04T13:32:11.508Z,91.20
2023-05-04T13:37:18.253Z,90.30
2023-05-04T13:42:20.394Z,89.50
2023-05-04T13:47:23.913Z,88.40
2023-05-04T13:52:27.143Z,84.50
2023-05-04T13:57:29.067Z,87.20
2023-05-04T14:02:31.058Z,87.20
2023-05-04T14:07:35.591Z,88.50
2023-05-04T14:12:37.572Z,84.40
2023-05-04T14:17:39.740Z,83.50
2023-05-04T14:22:41.878Z,85.10
2023-05-04T14:27:43.893Z,85.50
2023-05-04T14:32:45.814Z,84.10
2023-05-04T14:37:49.438Z,83.00
2023-05-04T14:42:51.132Z,80.90
2023-05-04T14:47:52.944Z,82.20
2023-05-04T14:52:54.659Z,80.30
2023-05-04T14:57:56.663Z,78.60
2023-05-04T15:02:58.396Z,80.30
2023-05-04T15:08:00.527Z,79.70
2023-05-04T15:13:03.320Z,77.20
2023-05-04T15:18:05.208Z,76.80
2023-05-04T15:23:16.340Z,77.10
2023-05-04T15:28:18.079Z,74.10
2023-05-04T15:33:19.842Z,75.30
2023-05-04T15:38:22.017Z,78.50
2023-05-04T15:43:23.867Z,79.20
2023-05-04T15:48:26.453Z,79.30
2023-05-04T15:53:28.414Z,79.00
2023-05-04T15:58:30.330Z,80.50
2023-05-04T16:03:33.353Z,79.20
2023-05-04T16:08:36.580Z,80.20
2023-05-04T16:13:38.800Z,78.50
2023-05-04T16:18:40.625Z,79.10
2023-05-04T16:23:42.417Z,83.70
2023-05-04T16:28:45.285Z,86.20
2023-05-04T16:33:48.026Z,86.20
2023-05-04T16:38:49.864Z,86.30
2023-05-04T16:43:52.138Z,86.20
2023-05-04T16:48:54.724Z,86.80
2023-05-04T16:53:56.440Z,87.00
2023-05-04T16:58:59.332Z,86.10
2023-05-04T17:04:01.680Z,86.10
2023-05-04T17:09:04.262Z,87.80
2023-05-04T17:14:06.021Z,87.80
2023-05-04T17:19:10.196Z,89.00
2023-05-04T17:24:12.722Z,89.90
2023-05-04T17:29:14.401Z,90.10
2023-05-04T17:34:16.098Z,90.00
2023-05-04T17:39:18.692Z,90.10
2023-05-04T17:44:20.475Z,90.50
2023-05-04T17:49:22.148Z,90.20
2023-05-04T17:54:23.822Z,90.20
2023-05-04T17:59:25.544Z,90.40
2023-05-04T18:04:28.650Z,90.90
2023-05-04T18:09:30.553Z,91.10
2023-05-04T18:14:32.292Z,91.80
2023-05-04T18:19:34.406Z,92.00
2023-05-04T18:24:36.111Z,92.30
2023-05-04T18:29:37.951Z,92.60
2023-05-04T18:34:39.699Z,93.10
2023-05-04T18:39:41.344Z,93.50
2023-05-04T18:44:43.245Z,94.00
2023-05-04T18:49:47.349Z,94.10
2023-05-04T18:54:49.620Z,94.30
2023-05-04T18:59:51.544Z,94.70
2023-05-04T19:04:53.341Z,95.00
2023-05-04T19:09:55.446Z,95.30
2023-05-04T19:14:57.168Z,95.50
2023-05-04T19:19:58.836Z,96.00
2023-05-04T19:25:00.566Z,96.50
2023-05-04T19:30:02.381Z,97.20
2023-05-04T19:35:08.283Z,97.70
2023-05-04T19:40:10.302Z,98.40
2023-05-04T19:45:15.550Z,98.80
2023-05-04T19:50:17.883Z,99.20
2023-05-04T19:55:19.720Z,99.50
2023-05-04T20:00:21.859Z,99.60
2023-05-04T20:05:23.652Z,99.80
2023-05-04T20:10:25.476Z,99.90
2023-05-04T20:15:27.225Z,99.90
2023-05-04T20:20:28.943Z,99.90
2023-05-04T20:25:30.768Z,99.90
2023-05-04T20:30:32.616Z,99.90
2023-05-04T20:35:34.342Z,99.90
2023-05-04T20:40:36.066Z,99.90
2023-05-04T20:45:37.902Z,99.90
2023-05-04T20:50:40.335Z,99.90
2023-05-04T20:55:43.414Z,99.90
2023-05-04T21:00:45.126Z,99.90
2023-05-04T21:05:47.125Z,99.90
2023-05-04T21:10:48.922Z,99.90
2023-05-04T21:15:52.365Z,99.90
2023-05-04T21:20:54.201Z,99.90
2023-05-04T21:26:05.466Z,99.90
2023-05-04T21:31:08.606Z,99.90
2023-05-04T21:36:14.599Z,99.90
2023-05-04T21:41:16.998Z,99.90
2023-05-04T21:46:19.104Z,99.90
2023-05-04T21:51:21.150Z,99.90
2023-05-04T21:56:23.042Z,99.90
2023-05-04T22:01:24.926Z,99.90
2023-05-04T22:06:27.157Z,99.90
2023-05-04T22:11:29.413Z,99.90
2023-05-04T22:16:31.189Z,99.90
2023-05-04T22:21:33.050Z,99.90
2023-05-04T22:26:34.726Z,99.90
2023-05-04T22:31:36.398Z,99.90
2023-05-04T22:36:38.207Z,99.90
2023-05-04T22:41:39.889Z,99.90
2023-05-04T22:46:41.621Z,99.90
2023-05-04T22:51:43.636Z,99.90
2023-05-04T22:56:45.325Z,99.90
2023-05-04T23:01:47.727Z,99.90
2023-05-04T23:06:52.075Z,99.90
2023-05-04T23:11:53.890Z,99.90
2023-05-04T23:16:55.538Z,99.90
2023-05-04T23:21:57.703Z,99.90
2023-05-04T23:26:59.579Z,99.90
2023-05-04T23:32:01.473Z,99.90
2023-05-04T23:37:03.320Z,99.90
2023-05-04T23:42:05.076Z,99.90
2023-05-04T23:47:06.801Z,99.90
2023-05-04T23:52:08.550Z,99.90
2023-05-04T23:57:10.458Z,99.90
